createdAt,value
2017-10-12T00:00:22.878Z,4.90
2017-10-12T00:02:50.409Z,5.00
2017-10-12T00:05:17.906Z,4.60
2017-10-12T00:07:45.427Z,5.10
2017-10-12T00:10:12.927Z,4.70
2017-10-12T00:12:40.886Z,4.27
2017-10-12T00:15:08.498Z,4.30
2017-10-12T00:17:36.575Z,4.20
2017-10-12T00:20:04.079Z,4.73
2017-10-12T00:22:31.603Z,4.37
2017-10-12T00:24:59.108Z,4.40
2017-10-12T00:27:26.626Z,4.40
2017-10-12T00:29:54.127Z,4.50
2017-10-12T00:32:22.444Z,4.43
2017-10-12T00:34:49.987Z,4.40
2017-10-12T00:37:17.512Z,4.57
2017-10-12T00:39:45.006Z,4.60
2017-10-12T00:42:12.523Z,4.30
2017-10-12T00:44:40.036Z,3.80
2017-10-12T00:47:07.535Z,3.93
2017-10-12T00:49:35.135Z,4.87
2017-10-12T00:52:02.630Z,4.50
2017-10-12T00:54:30.143Z,4.70
2017-10-12T00:56:57.664Z,4.93
2017-10-12T00:59:25.187Z,4.60
2017-10-12T01:01:52.732Z,4.40
2017-10-12T01:04:20.292Z,4.77
2017-10-12T01:06:47.795Z,5.13
2017-10-12T01:09:15.307Z,5.20
2017-10-12T01:11:42.806Z,4.57
2017-10-12T01:14:10.314Z,5.40
2017-10-12T01:16:37.811Z,4.33
2017-10-12T01:19:05.331Z,4.20
2017-10-12T01:21:32.831Z,4.40
2017-10-12T01:24:00.352Z,4.93
2017-10-12T01:26:27.892Z,4.70
2017-10-12T01:28:56.221Z,4.70
2017-10-12T01:31:23.727Z,4.60
2017-10-12T01:33:52.017Z,4.30
2017-10-12T01:36:19.579Z,5.03
2017-10-12T01:38:47.118Z,4.73
2017-10-12T01:41:15.381Z,4.10
2017-10-12T01:43:42.879Z,4.77
2017-10-12T01:46:10.398Z,4.80
2017-10-12T01:48:49.847Z,5.17
2017-10-12T01:51:18.135Z,4.77
2017-10-12T01:53:45.640Z,4.80
2017-10-12T01:56:13.154Z,4.50
2017-10-12T01:58:40.716Z,4.83
2017-10-12T02:01:08.231Z,4.70
2017-10-12T02:03:35.736Z,4.60
2017-10-12T02:06:03.298Z,4.17
2017-10-12T02:08:30.794Z,4.50
2017-10-12T02:10:58.310Z,5.47
2017-10-12T02:13:25.823Z,5.17
2017-10-12T02:15:53.334Z,4.57
2017-10-12T02:18:20.835Z,3.90
2017-10-12T02:20:48.443Z,3.80
2017-10-12T02:23:15.948Z,4.27
2017-10-12T02:25:43.555Z,4.23
2017-10-12T02:28:11.060Z,3.50
2017-10-12T02:30:38.576Z,4.10
2017-10-12T02:33:06.078Z,4.53
2017-10-12T02:35:33.590Z,4.37
2017-10-12T02:38:01.096Z,4.53
2017-10-12T02:40:28.610Z,3.40
2017-10-12T02:42:56.482Z,4.43
2017-10-12T02:45:23.995Z,4.07
2017-10-12T02:47:51.490Z,3.80
2017-10-12T02:50:19.398Z,4.47
2017-10-12T02:52:46.906Z,3.90
2017-10-12T02:55:14.423Z,4.23
2017-10-12T02:57:41.945Z,3.50
2017-10-12T03:00:09.459Z,3.40
2017-10-12T03:02:37.761Z,3.87
2017-10-12T03:05:05.555Z,3.53
2017-10-12T03:07:33.070Z,3.57
2017-10-12T03:10:01.339Z,3.83
2017-10-12T03:12:29.614Z,3.57
2017-10-12T03:14:57.875Z,4.23
2017-10-12T03:17:25.395Z,3.20
2017-10-12T03:19:52.894Z,3.30
2017-10-12T03:22:21.186Z,3.40
2017-10-12T03:24:49.450Z,3.70
2017-10-12T03:27:17.731Z,2.73
2017-10-12T03:29:46.771Z,3.00
2017-10-12T03:32:14.307Z,3.00
2017-10-12T03:34:41.873Z,3.17
2017-10-12T03:37:09.386Z,3.00
2017-10-12T03:39:36.888Z,3.50
2017-10-12T03:42:04.407Z,3.80
2017-10-12T03:44:32.675Z,3.70
2017-10-12T03:47:00.191Z,3.13
2017-10-12T03:49:27.686Z,3.00
2017-10-12T03:51:55.193Z,2.90
2017-10-12T03:54:22.711Z,3.00
2017-10-12T03:56:50.992Z,3.10
2017-10-12T03:59:19.287Z,3.47
2017-10-12T04:01:47.871Z,2.57
2017-10-12T04:04:15.611Z,2.87
2017-10-12T04:06:43.110Z,2.80
2017-10-12T04:09:10.626Z,3.00
2017-10-12T04:11:38.219Z,2.80
2017-10-12T04:14:05.744Z,3.60
2017-10-12T04:16:34.007Z,3.57
2017-10-12T04:19:01.531Z,4.20
2017-10-12T04:21:29.699Z,3.37
2017-10-12T04:23:57.211Z,3.80
2017-10-12T04:26:25.152Z,3.07
2017-10-12T04:28:52.670Z,3.00
2017-10-12T04:31:20.166Z,2.90
2017-10-12T04:33:47.682Z,3.30
2017-10-12T04:36:15.175Z,3.23
2017-10-12T04:38:42.794Z,2.93
2017-10-12T04:41:10.295Z,3.10
2017-10-12T04:43:37.816Z,3.60
2017-10-12T04:46:05.325Z,3.37
2017-10-12T04:48:32.822Z,3.37
2017-10-12T04:51:01.103Z,2.80
2017-10-12T04:53:28.610Z,2.97
2017-10-12T04:55:56.127Z,3.30
2017-10-12T04:58:23.631Z,2.90
2017-10-12T05:00:51.153Z,3.47
2017-10-12T05:03:18.655Z,2.80
2017-10-12T05:05:46.171Z,3.57
2017-10-12T05:08:13.674Z,3.27
2017-10-12T05:10:41.192Z,2.90
2017-10-12T05:13:08.701Z,3.10
2017-10-12T05:15:36.990Z,2.83
2017-10-12T05:18:05.261Z,3.60
2017-10-12T05:20:33.560Z,4.00
2017-10-12T05:23:01.062Z,3.00
2017-10-12T05:25:28.583Z,3.00
2017-10-12T05:27:56.087Z,3.67
2017-10-12T05:30:23.622Z,4.33
2017-10-12T05:32:51.119Z,3.43
2017-10-12T05:35:19.425Z,3.27
2017-10-12T05:37:46.983Z,3.30
2017-10-12T05:40:14.482Z,3.70
2017-10-12T05:42:41.994Z,3.40
2017-10-12T05:45:09.495Z,2.80
2017-10-12T05:47:37.010Z,3.00
2017-10-12T05:50:04.567Z,3.07
2017-10-12T05:52:32.096Z,2.70
2017-10-12T05:54:59.599Z,3.30
2017-10-12T05:57:27.122Z,3.10
2017-10-12T05:59:55.390Z,3.50
2017-10-12T06:02:22.916Z,3.53
2017-10-12T06:04:50.419Z,3.63
2017-10-12T06:07:18.710Z,3.33
2017-10-12T06:09:46.211Z,3.23
2017-10-12T06:12:13.732Z,3.90
2017-10-12T06:14:41.230Z,3.40
2017-10-12T06:17:09.516Z,3.80
2017-10-12T06:19:37.023Z,4.13
2017-10-12T06:22:04.542Z,3.30
2017-10-12T06:24:32.039Z,3.93
2017-10-12T06:26:59.534Z,3.53
2017-10-12T06:29:27.045Z,3.43
2017-10-12T06:31:54.546Z,3.43
2017-10-12T06:34:22.439Z,4.20
2017-10-12T06:36:49.940Z,4.00
2017-10-12T06:39:17.455Z,3.83
2017-10-12T06:41:44.956Z,3.63
2017-10-12T06:44:12.473Z,3.10
2017-10-12T06:46:39.979Z,4.33
2017-10-12T06:49:07.495Z,4.20
2017-10-12T06:51:35.779Z,3.50
2017-10-12T06:54:04.062Z,3.33
2017-10-12T06:56:32.329Z,3.80
2017-10-12T06:59:00.608Z,3.60
2017-10-12T07:01:28.876Z,3.50
2017-10-12T07:03:57.153Z,3.93
2017-10-12T07:06:25.415Z,3.30
2017-10-12T07:08:52.927Z,3.60
2017-10-12T07:11:20.471Z,3.97
2017-10-12T07:13:47.987Z,3.50
2017-10-12T07:16:15.484Z,4.13
2017-10-12T07:18:43.006Z,3.87
2017-10-12T07:21:10.510Z,3.67
2017-10-12T07:23:38.051Z,4.63
2017-10-12T07:26:05.559Z,4.70
2017-10-12T07:28:33.068Z,4.10
2017-10-12T07:31:00.599Z,3.37
2017-10-12T07:33:28.871Z,4.50
2017-10-12T07:35:56.899Z,4.57
2017-10-12T07:38:24.434Z,5.03
2017-10-12T07:40:51.950Z,4.20
2017-10-12T07:43:19.446Z,3.83
2017-10-12T07:45:46.963Z,4.17
2017-10-12T07:48:14.468Z,4.13
2017-10-12T07:50:41.987Z,4.17
2017-10-12T07:53:09.490Z,4.20
2017-10-12T07:55:37.011Z,3.83
2017-10-12T07:58:05.287Z,4.10
2017-10-12T08:00:32.810Z,3.43
2017-10-12T08:03:00.310Z,4.13
2017-10-12T08:05:28.586Z,4.17
2017-10-12T08:07:56.855Z,4.10
2017-10-12T08:10:25.143Z,5.07
2017-10-12T08:12:53.413Z,4.23
2017-10-12T08:15:21.694Z,4.07
2017-10-12T08:17:49.958Z,4.17
2017-10-12T08:20:18.243Z,4.50
2017-10-12T08:22:46.511Z,4.33
2017-10-12T08:25:14.815Z,3.90
2017-10-12T08:27:42.318Z,4.20
2017-10-12T08:30:09.822Z,4.40
2017-10-12T08:32:37.343Z,3.60
2017-10-12T08:35:04.838Z,4.33
2017-10-12T08:37:32.359Z,3.60
2017-10-12T08:39:59.855Z,3.97
2017-10-12T08:42:27.374Z,3.93
2017-10-12T08:44:54.876Z,3.70
2017-10-12T08:47:22.391Z,3.70
2017-10-12T08:49:49.987Z,4.13
2017-10-12T08:52:17.503Z,3.43
2017-10-12T08:54:44.998Z,3.70
2017-10-12T08:57:13.278Z,4.33
2017-10-12T08:59:40.784Z,3.87
2017-10-12T09:02:08.403Z,3.70
2017-10-12T09:04:35.899Z,5.00
2017-10-12T09:07:03.410Z,4.10
2017-10-12T09:09:31.671Z,5.07
2017-10-12T09:11:59.955Z,4.37
2017-10-12T09:14:28.225Z,5.00
2017-10-12T09:16:56.506Z,3.90
2017-10-12T09:19:24.775Z,4.13
2017-10-12T09:21:53.062Z,5.00
2017-10-12T09:24:21.322Z,5.50
2017-10-12T09:26:49.610Z,5.00
2017-10-12T09:29:17.871Z,5.27
2017-10-12T09:31:46.163Z,5.20
2017-10-12T09:34:14.430Z,4.40
2017-10-12T09:36:42.740Z,4.80
2017-10-12T09:39:10.238Z,4.20
2017-10-12T09:41:37.739Z,4.67
2017-10-12T09:44:05.263Z,4.50
2017-10-12T09:46:32.775Z,4.17
2017-10-12T09:49:00.299Z,4.20
2017-10-12T09:51:28.562Z,4.73
2017-10-12T09:53:56.150Z,4.10
2017-10-12T09:56:23.698Z,4.43
2017-10-12T09:58:51.983Z,5.00
2017-10-12T10:01:19.495Z,3.93
2017-10-12T10:03:47.019Z,4.30
2017-10-12T10:06:14.518Z,3.90
2017-10-12T10:08:42.034Z,4.70
2017-10-12T10:11:09.537Z,4.47
2017-10-12T10:13:37.058Z,4.10
2017-10-12T10:16:04.564Z,4.27
2017-10-12T10:18:32.850Z,4.43
2017-10-12T10:21:01.139Z,4.30
2017-10-12T10:23:28.655Z,4.00
2017-10-12T10:25:56.163Z,4.23
2017-10-12T10:28:23.678Z,3.93
2017-10-12T10:30:51.175Z,4.70
2017-10-12T10:33:18.699Z,3.60
2017-10-12T10:35:46.207Z,3.67
2017-10-12T10:38:13.723Z,3.77
2017-10-12T10:40:41.992Z,4.00
2017-10-12T10:43:09.537Z,4.40
2017-10-12T10:45:37.156Z,5.17
2017-10-12T10:48:04.667Z,3.80
2017-10-12T10:50:32.198Z,3.60
2017-10-12T10:52:59.715Z,3.80
2017-10-12T10:55:27.212Z,3.80
2017-10-12T10:57:54.763Z,3.47
2017-10-12T11:00:22.268Z,2.93
2017-10-12T11:02:50.554Z,2.77
2017-10-12T11:05:18.822Z,2.80
2017-10-12T11:07:47.114Z,3.10
2017-10-12T11:10:14.616Z,2.57
2017-10-12T11:12:42.166Z,2.90
2017-10-12T11:15:09.671Z,2.80
2017-10-12T11:17:37.943Z,3.13
2017-10-12T11:20:06.226Z,2.80
2017-10-12T11:22:34.522Z,3.07
2017-10-12T11:25:02.051Z,4.63
2017-10-12T11:27:30.351Z,3.37
2017-10-12T11:29:57.916Z,3.50
2017-10-12T11:32:25.471Z,3.37
2017-10-12T11:34:53.034Z,3.40
2017-10-12T11:37:20.590Z,4.77
2017-10-12T11:39:48.147Z,5.37
2017-10-12T11:42:15.647Z,3.50
2017-10-12T11:44:43.166Z,3.30
2017-10-12T11:47:10.663Z,3.60
2017-10-12T11:49:38.179Z,3.30
2017-10-12T11:52:05.739Z,3.00
2017-10-12T11:54:33.254Z,3.90
2017-10-12T11:57:00.751Z,3.60
2017-10-12T11:59:28.282Z,3.80
2017-10-12T12:01:55.785Z,2.60
2017-10-12T12:04:23.287Z,2.93
2017-10-12T12:06:50.801Z,2.73
2017-10-12T12:09:18.295Z,3.47
2017-10-12T12:11:45.811Z,3.37
2017-10-12T12:14:13.315Z,3.20
2017-10-12T12:16:40.915Z,2.47
2017-10-12T12:19:08.411Z,3.37
2017-10-12T12:21:35.931Z,2.73
2017-10-12T12:24:03.432Z,3.03
2017-10-12T12:26:31.003Z,2.33
2017-10-12T12:28:58.511Z,2.40
2017-10-12T12:31:26.031Z,3.10
2017-10-12T12:33:53.534Z,2.90
2017-10-12T12:36:21.078Z,2.73
2017-10-12T12:38:48.574Z,3.10
2017-10-12T12:41:16.104Z,3.10
2017-10-12T12:43:43.660Z,2.60
2017-10-12T12:46:11.216Z,2.20
2017-10-12T12:48:38.775Z,3.00
2017-10-12T12:51:06.307Z,3.27
2017-10-12T12:53:34.167Z,2.70
2017-10-12T12:56:01.687Z,2.70
2017-10-12T12:58:29.187Z,3.43
2017-10-12T13:00:56.703Z,2.97
2017-10-12T13:03:24.235Z,2.50
2017-10-12T13:05:51.748Z,2.53
2017-10-12T13:08:19.347Z,2.40
2017-10-12T13:10:46.879Z,2.20
2017-10-12T13:13:14.375Z,2.27
2017-10-12T13:15:41.875Z,2.70
2017-10-12T13:18:09.392Z,2.43
2017-10-12T13:20:36.895Z,2.40
2017-10-12T13:23:04.425Z,2.70
2017-10-12T13:25:32.255Z,2.30
2017-10-12T13:28:00.534Z,2.23
2017-10-12T13:30:28.099Z,2.87
2017-10-12T13:32:55.655Z,2.00
2017-10-12T13:35:23.826Z,2.30
2017-10-12T13:37:51.339Z,2.50
2017-10-12T13:40:18.838Z,2.33
2017-10-12T13:42:47.119Z,2.60
2017-10-12T13:45:14.619Z,2.60
2017-10-12T13:47:42.130Z,2.40
2017-10-12T13:50:09.630Z,2.37
2017-10-12T13:52:37.146Z,2.23
2017-10-12T13:55:04.650Z,2.10
2017-10-12T13:57:32.163Z,2.77
2017-10-12T14:00:00.426Z,2.20
2017-10-12T14:02:28.718Z,2.20
2017-10-12T14:04:56.219Z,4.10
2017-10-12T14:07:24.111Z,7.90
2017-10-12T14:09:51.632Z,2.10
2017-10-12T14:12:19.507Z,2.00
2017-10-12T14:14:47.027Z,2.27
2017-10-12T14:17:14.526Z,2.23
2017-10-12T14:19:42.043Z,2.00
2017-10-12T14:22:09.599Z,1.67
2017-10-12T14:24:37.119Z,1.90
2017-10-12T14:27:04.624Z,2.07
2017-10-12T14:29:32.139Z,2.17
2017-10-12T14:31:59.646Z,1.70
2017-10-12T14:34:27.195Z,2.07
2017-10-12T14:36:54.767Z,2.60
2017-10-12T14:39:22.298Z,1.97
2017-10-12T14:41:50.563Z,2.03
2017-10-12T14:44:18.856Z,2.07
2017-10-12T14:46:46.381Z,1.73
2017-10-12T14:49:13.895Z,1.90
2017-10-12T14:51:41.391Z,1.90
2017-10-12T14:54:08.912Z,1.53
2017-10-12T14:56:36.448Z,1.83
2017-10-12T14:59:04.229Z,1.53
2017-10-12T15:01:31.731Z,2.13
2017-10-12T15:03:59.252Z,1.77
2017-10-12T15:06:26.747Z,1.97
2017-10-12T15:08:54.262Z,1.67
2017-10-12T15:11:21.764Z,2.20
2017-10-12T15:13:50.786Z,2.00
2017-10-12T15:16:19.050Z,2.13
2017-10-12T15:18:47.331Z,1.53
2017-10-12T15:21:15.637Z,1.53
2017-10-12T15:23:43.163Z,1.90
2017-10-12T15:26:11.442Z,2.63
2017-10-12T15:28:39.759Z,2.43
2017-10-12T15:31:07.263Z,1.80
2017-10-12T15:33:34.866Z,2.73
2017-10-12T15:36:02.411Z,2.23
2017-10-12T15:38:29.911Z,2.40
2017-10-12T15:40:57.426Z,3.27
2017-10-12T15:43:24.930Z,2.60
2017-10-12T15:45:52.443Z,2.03
2017-10-12T15:48:19.939Z,2.03
2017-10-12T15:50:47.459Z,2.73
2017-10-12T15:53:14.954Z,2.43
2017-10-12T15:55:42.466Z,2.23
2017-10-12T15:58:10.735Z,2.20
2017-10-12T16:00:39.432Z,2.30
2017-10-12T16:03:06.928Z,2.87
2017-10-12T16:05:34.462Z,2.67
2017-10-12T16:08:01.967Z,2.67
2017-10-12T16:10:29.484Z,2.07
2017-10-12T16:12:56.979Z,2.80
2017-10-12T16:15:24.499Z,2.60
2017-10-12T16:17:51.995Z,2.00
2017-10-12T16:20:19.512Z,2.13
2017-10-12T16:23:01.972Z,2.43
2017-10-12T16:25:15.421Z,2.50
2017-10-12T16:27:43.687Z,2.67
2017-10-12T16:30:11.987Z,2.37
2017-10-12T16:35:07.108Z,2.53
2017-10-12T16:37:34.635Z,2.80
2017-10-12T16:40:02.902Z,2.37
2017-10-12T16:42:30.422Z,2.77
2017-10-12T16:44:57.919Z,2.83
2017-10-12T16:47:25.431Z,2.87
2017-10-12T16:49:52.931Z,2.53
2017-10-12T16:52:20.450Z,2.50
2017-10-12T16:54:47.951Z,2.67
2017-10-12T16:57:15.472Z,3.07
2017-10-12T16:59:42.966Z,3.10
2017-10-12T17:02:10.479Z,2.60
2017-10-12T17:04:37.979Z,2.67
2017-10-12T17:07:05.504Z,3.70
2017-10-12T17:09:33.007Z,3.80
2017-10-12T17:12:01.299Z,6.83
2017-10-12T17:14:29.567Z,4.70
2017-10-12T17:16:58.260Z,3.63
2017-10-12T17:19:26.754Z,3.53
2017-10-12T17:21:54.427Z,3.03
2017-10-12T17:24:22.117Z,4.27
2017-10-12T17:26:49.927Z,5.13
2017-10-12T17:29:18.199Z,5.37
2017-10-12T17:31:46.478Z,4.07
2017-10-12T17:34:15.088Z,4.50
2017-10-12T17:36:42.931Z,4.40
2017-10-12T17:39:11.236Z,4.80
2017-10-12T17:41:38.751Z,4.57
2017-10-12T17:44:07.028Z,4.03
2017-10-12T17:46:35.315Z,4.90
2017-10-12T17:49:02.890Z,7.60
2017-10-12T17:51:31.192Z,6.83
2017-10-12T17:53:58.703Z,6.40
2017-10-12T17:56:27.007Z,5.57
2017-10-12T17:58:54.516Z,8.60
2017-10-12T18:01:22.023Z,7.00
2017-10-12T18:03:49.555Z,5.23
2017-10-12T18:06:17.142Z,5.53
2017-10-12T18:08:44.697Z,5.77
2017-10-12T18:11:12.567Z,4.30
2017-10-12T18:13:40.254Z,6.77
2017-10-12T18:16:07.789Z,9.60
2017-10-12T18:18:35.311Z,7.60
2017-10-12T18:21:03.591Z,16.20
2017-10-12T18:23:31.966Z,10.77
2017-10-12T18:26:00.244Z,10.93
2017-10-12T18:28:28.548Z,9.10
2017-10-12T18:30:56.187Z,6.67
2017-10-12T18:33:24.478Z,3.93
2017-10-12T18:35:52.052Z,4.80
2017-10-12T18:38:19.579Z,5.10
2017-10-12T18:40:47.885Z,3.07
2017-10-12T18:43:15.402Z,4.83
2017-10-12T18:45:42.928Z,4.80
2017-10-12T18:48:10.591Z,4.17
2017-10-12T18:50:38.538Z,3.73
2017-10-12T18:53:06.057Z,3.47
2017-10-12T18:55:33.991Z,5.57
2017-10-12T18:58:01.625Z,4.90
2017-10-12T19:00:29.156Z,4.63
2017-10-12T19:02:57.445Z,6.20
2017-10-12T19:05:25.737Z,6.43
2017-10-12T19:07:53.338Z,5.37
2017-10-12T19:10:20.894Z,5.83
2017-10-12T19:12:48.413Z,5.93
2017-10-12T19:15:16.297Z,6.47
2017-10-12T19:17:44.057Z,6.00
2017-10-12T19:20:11.591Z,5.57
2017-10-12T19:22:40.197Z,5.10
2017-10-12T19:25:08.489Z,5.83
2017-10-12T19:27:36.165Z,5.60
2017-10-12T19:30:03.887Z,5.73
2017-10-12T19:32:31.465Z,5.10
2017-10-12T19:34:58.975Z,4.87
2017-10-12T19:37:26.606Z,4.30
2017-10-12T19:39:54.238Z,4.17
2017-10-12T19:42:21.773Z,3.93
2017-10-12T19:44:50.058Z,4.00
2017-10-12T19:47:17.598Z,4.10
2017-10-12T19:49:46.125Z,4.67
2017-10-12T19:52:13.655Z,4.23
2017-10-12T19:54:41.345Z,4.77
2017-10-12T19:57:08.929Z,4.03
2017-10-12T19:59:36.452Z,4.77
2017-10-12T20:02:03.979Z,5.10
2017-10-12T20:04:32.273Z,4.03
2017-10-12T20:06:59.847Z,4.20
2017-10-12T20:09:27.594Z,4.30
2017-10-12T20:11:55.270Z,5.90
2017-10-12T20:14:22.787Z,4.50
2017-10-12T20:16:51.095Z,3.80
2017-10-12T20:19:18.680Z,4.40
2017-10-12T20:21:46.216Z,4.50
2017-10-12T20:26:41.752Z,5.10
2017-10-12T20:29:38.096Z,4.87
2017-10-12T20:31:37.006Z,4.43
2017-10-12T20:34:04.519Z,5.00
2017-10-12T20:36:32.027Z,4.10
2017-10-12T20:38:59.547Z,5.17
2017-10-12T20:41:27.052Z,5.30
2017-10-12T20:43:54.572Z,4.50
2017-10-12T20:46:22.906Z,5.10
2017-10-12T20:48:51.198Z,4.50
2017-10-12T20:51:18.702Z,4.03
2017-10-12T20:53:46.225Z,4.53
2017-10-12T20:56:13.724Z,4.10
2017-10-12T20:58:41.240Z,4.60
2017-10-12T21:01:08.747Z,4.00
2017-10-12T21:03:36.276Z,4.83
2017-10-12T21:06:03.792Z,4.90
2017-10-12T21:08:32.091Z,4.20
2017-10-12T21:10:59.595Z,5.00
2017-10-12T21:13:27.213Z,4.27
2017-10-12T21:15:54.728Z,3.70
2017-10-12T21:18:23.024Z,4.03
2017-10-12T21:20:50.533Z,3.90
2017-10-12T21:23:18.155Z,4.50
2017-10-12T21:25:45.959Z,3.83
2017-10-12T21:28:13.488Z,3.90
2017-10-12T21:30:40.996Z,4.00
2017-10-12T21:33:08.547Z,3.60
2017-10-12T21:35:36.064Z,4.03
2017-10-12T21:38:03.567Z,4.63
2017-10-12T21:40:31.091Z,3.60
2017-10-12T21:42:58.592Z,4.10
2017-10-12T21:45:26.287Z,3.93
2017-10-12T21:47:53.857Z,3.80
2017-10-12T21:50:21.371Z,3.77
2017-10-12T21:52:49.439Z,3.30
2017-10-12T21:55:17.044Z,2.87
2017-10-12T21:57:44.595Z,3.43
2017-10-12T22:00:12.106Z,3.07
2017-10-12T22:02:39.616Z,3.97
2017-10-12T22:05:07.142Z,3.83
2017-10-12T22:07:35.407Z,3.60
2017-10-12T22:10:02.923Z,3.87
2017-10-12T22:12:30.423Z,3.50
2017-10-12T22:14:58.212Z,3.13
2017-10-12T22:17:26.494Z,3.27
2017-10-12T22:19:54.158Z,3.23
2017-10-12T22:22:21.654Z,3.80
2017-10-12T22:24:49.176Z,3.53
2017-10-12T22:27:16.675Z,4.33
2017-10-12T22:29:44.292Z,3.60
2017-10-12T22:32:11.794Z,3.40
2017-10-12T22:34:39.318Z,3.50
2017-10-12T22:37:06.826Z,3.53
2017-10-12T22:39:34.344Z,4.53
2017-10-12T22:42:01.844Z,4.27
2017-10-12T22:44:29.363Z,3.93
2017-10-12T22:46:56.863Z,3.50
2017-10-12T22:49:24.387Z,3.23
2017-10-12T22:51:51.890Z,4.53
2017-10-12T22:54:20.182Z,3.30
2017-10-12T22:56:47.683Z,3.30
2017-10-12T22:59:15.580Z,4.00
2017-10-12T23:01:43.080Z,3.63
2017-10-12T23:04:10.583Z,3.40
2017-10-12T23:06:38.104Z,3.40
2017-10-12T23:09:05.646Z,3.53
2017-10-12T23:11:33.167Z,3.43
2017-10-12T23:14:01.595Z,4.63
2017-10-12T23:16:29.120Z,4.03
2017-10-12T23:18:57.393Z,4.20
2017-10-12T23:21:25.679Z,4.03
2017-10-12T23:23:54.210Z,4.17
2017-10-12T23:26:21.756Z,4.77
2017-10-12T23:28:49.268Z,4.23
2017-10-12T23:31:17.555Z,4.83
2017-10-12T23:33:45.824Z,4.00
2017-10-12T23:36:14.111Z,7.23
2017-10-12T23:38:41.628Z,8.07
2017-10-12T23:41:09.147Z,5.70
2017-10-12T23:43:36.647Z,4.70
2017-10-12T23:46:04.255Z,4.40
2017-10-12T23:48:31.759Z,6.53
2017-10-12T23:50:59.279Z,5.07
2017-10-12T23:53:26.785Z,6.47
2017-10-12T23:55:55.083Z,8.30
2017-10-12T23:58:23.351Z,8.53
